Time;durP1;ratioP1;P1;durP2;ratioP2;P2;SDS_P1;SDS_P2;PMS_P1;PMS_P2;Temp;Humidity;BMP_temperature;BMP_pressure;BME280_temperature;BME280_humidity;BME280_pressure;Samples;Min_cycle;Max_cycle;Signal;HPM_P1;HPM_P2
2022/04/13 00:01:43;;;;;;;14.50;9.57;;;13.70;99.90;;;;;;4910960;29;20040;-93
2022/04/13 00:04:09;;;;;;;12.85;9.70;;;13.60;99.90;;;;;;4910312;29;20056;-93
2022/04/13 00:06:41;;;;;;;12.52;9.82;;;13.50;99.90;;;;;;4898664;29;20466;-92
2022/04/13 00:09:08;;;;;;;13.70;9.90;;;13.40;99.90;;;;;;4896735;29;20139;-94
2022/04/13 00:11:34;;;;;;;14.00;10.15;;;13.40;99.90;;;;;;4916777;29;20048;-93
2022/04/13 00:14:00;;;;;;;13.07;9.98;;;13.30;99.90;;;;;;4901218;29;20055;-93
2022/04/13 00:16:26;;;;;;;13.30;9.93;;;13.30;99.90;;;;;;4933929;29;20047;-93
2022/04/13 00:18:52;;;;;;;12.75;9.80;;;13.30;99.90;;;;;;4919452;29;20044;-93
2022/04/13 00:21:18;;;;;;;13.32;10.50;;;13.20;99.90;;;;;;4919296;29;20040;-93
2022/04/13 00:23:43;;;;;;;13.10;10.68;;;13.10;99.90;;;;;;4914883;29;20520;-93
2022/04/13 00:26:09;;;;;;;12.50;10.23;;;13.10;99.90;;;;;;4913892;29;20137;-92
2022/04/13 00:28:34;;;;;;;12.63;10.48;;;13.00;99.90;;;;;;4913930;29;20044;-92
2022/04/13 00:31:00;;;;;;;13.20;10.68;;;13.00;99.90;;;;;;4915225;29;20107;-92
2022/04/13 00:33:25;;;;;;;13.45;10.30;;;12.90;99.90;;;;;;4916531;29;20040;-93
2022/04/13 00:35:53;;;;;;;12.10;10.18;;;12.90;99.90;;;;;;4936320;29;20052;-91
2022/04/13 00:38:21;;;;;;;11.68;9.95;;;12.80;99.90;;;;;;4930212;29;20071;-91
2022/04/13 00:40:47;;;;;;;12.95;9.73;;;12.80;99.90;;;;;;4932905;29;20056;-91
2022/04/13 00:43:13;;;;;;;13.68;10.85;;;12.70;99.90;;;;;;4923722;29;20068;-93
2022/04/13 00:45:38;;;;;;;14.43;10.80;;;12.60;99.90;;;;;;4915200;29;20090;-93
2022/04/13 00:48:06;;;;;;;12.98;10.30;;;12.60;99.90;;;;;;4916030;29;20048;-92
2022/04/13 00:50:32;;;;;;;12.50;10.55;;;12.60;99.90;;;;;;4928206;29;20068;-91
2022/04/13 00:52:59;;;;;;;13.68;10.82;;;12.60;99.90;;;;;;4936246;29;20068;-92
2022/04/13 00:55:26;;;;;;;13.73;10.93;;;12.60;99.90;;;;;;4907108;29;20067;-92
2022/04/13 00:57:53;;;;;;;15.52;11.15;;;12.60;99.90;;;;;;4936177;29;20047;-92
2022/04/13 01:00:19;;;;;;;12.32;9.93;;;12.60;99.90;;;;;;4914413;29;20462;-92
2022/04/13 01:02:45;;;;;;;13.68;11.45;;;12.60;99.90;;;;;;4919958;29;20051;-92
2022/04/13 01:05:12;;;;;;;12.27;10.57;;;12.60;99.90;;;;;;4898152;29;20062;-92
2022/04/13 01:07:39;;;;;;;12.65;10.02;;;12.60;99.90;;;;;;4914371;29;20052;-92
2022/04/13 01:10:06;;;;;;;12.05;10.60;;;12.50;99.90;;;;;;4896623;29;20079;-92
2022/04/13 01:12:33;;;;;;;13.55;11.60;;;12.50;99.90;;;;;;4913784;29;20044;-92
2022/04/13 01:14:59;;;;;;;14.95;11.57;;;12.50;99.90;;;;;;4916486;29;20438;-92
2022/04/13 01:17:25;;;;;;;15.88;11.45;;;12.50;99.90;;;;;;4896222;29;20048;-92
2022/04/13 01:19:50;;;;;;;15.43;12.52;;;12.50;99.90;;;;;;4913158;29;20044;-92
2022/04/13 01:22:21;;;;;;;14.02;12.55;;;12.60;99.90;;;;;;4895673;29;20091;-93
2022/04/13 01:24:47;;;;;;;15.80;12.25;;;12.60;99.90;;;;;;4917408;29;20414;-93
2022/04/13 01:27:16;;;;;;;14.23;11.80;;;12.60;99.90;;;;;;4912074;29;20059;-92
2022/04/13 01:29:43;;;;;;;15.32;12.18;;;12.50;99.90;;;;;;4896364;29;20040;-92
2022/04/13 01:32:11;;;;;;;13.80;12.32;;;12.50;99.90;;;;;;4915354;29;20048;-92
2022/04/13 01:34:37;;;;;;;15.40;12.10;;;12.50;99.90;;;;;;4898784;29;20104;-92
2022/04/13 01:37:03;;;;;;;16.33;12.68;;;12.50;99.90;;;;;;4912335;29;20397;-92
2022/04/13 01:39:29;;;;;;;15.70;12.18;;;12.50;99.90;;;;;;4912012;29;20052;-92
2022/04/13 01:41:55;;;;;;;16.08;12.48;;;12.40;99.90;;;;;;4912736;29;20089;-91
2022/04/13 01:44:20;;;;;;;15.75;13.45;;;12.30;99.90;;;;;;4909087;29;20048;-91
2022/04/13 01:46:46;;;;;;;18.30;14.00;;;12.40;99.90;;;;;;4895705;29;20123;-92
2022/04/13 01:49:11;;;;;;;14.00;12.48;;;12.30;99.90;;;;;;4911958;29;20145;-92
2022/04/13 01:51:37;;;;;;;15.45;13.48;;;12.30;99.90;;;;;;4912272;29;20071;-91
2022/04/13 01:54:03;;;;;;;17.60;13.80;;;12.20;99.90;;;;;;4911453;29;20450;-92
2022/04/13 01:56:28;;;;;;;14.40;12.68;;;12.30;99.90;;;;;;4914158;29;20044;-92
2022/04/13 01:58:54;;;;;;;15.32;12.60;;;12.20;99.90;;;;;;4912505;29;20098;-91
2022/04/13 02:01:20;;;;;;;14.05;12.55;;;12.20;99.90;;;;;;4908703;29;20385;-91
2022/04/13 02:03:45;;;;;;;14.85;13.25;;;12.10;99.90;;;;;;4912594;29;20639;-92
2022/04/13 02:06:11;;;;;;;15.45;13.57;;;12.10;99.90;;;;;;4917245;29;20044;-91
2022/04/13 02:08:37;;;;;;;14.70;12.13;;;12.10;99.90;;;;;;4930478;29;20166;-91
2022/04/13 02:11:03;;;;;;;14.88;13.23;;;12.10;99.90;;;;;;4914689;29;20135;-91
2022/04/13 02:13:29;;;;;;;15.30;12.82;;;12.00;99.90;;;;;;4892943;29;20052;-92
2022/04/13 02:15:54;;;;;;;16.17;13.23;;;12.00;99.90;;;;;;4912125;29;20127;-92
2022/04/13 02:18:20;;;;;;;17.95;13.55;;;12.00;99.90;;;;;;4911761;29;20450;-92
2022/04/13 02:20:45;;;;;;;15.60;13.50;;;12.00;99.90;;;;;;4915686;29;20217;-92
2022/04/13 02:23:11;;;;;;;16.67;13.75;;;12.00;99.90;;;;;;4912146;29;20044;-91
2022/04/13 02:25:37;;;;;;;15.55;13.00;;;11.90;99.90;;;;;;4909640;29;20494;-91
2022/04/13 02:28:03;;;;;;;14.20;12.70;;;11.90;99.90;;;;;;4913673;29;20072;-92
2022/04/13 02:30:29;;;;;;;15.45;13.18;;;11.90;99.90;;;;;;4911256;29;20052;-92
2022/04/13 02:32:55;;;;;;;17.42;12.90;;;11.90;99.90;;;;;;4911557;29;20076;-92
2022/04/13 02:35:21;;;;;;;16.85;14.07;;;11.90;99.90;;;;;;4910625;29;20052;-91
2022/04/13 02:37:46;;;;;;;15.65;12.85;;;11.80;99.90;;;;;;4912341;29;20458;-92
2022/04/13 02:40:13;;;;;;;15.32;13.27;;;11.80;99.90;;;;;;4909780;29;20377;-92
2022/04/13 02:42:39;;;;;;;14.65;13.05;;;11.90;99.90;;;;;;4911382;29;20442;-92
2022/04/13 02:45:05;;;;;;;15.45;13.10;;;11.80;99.90;;;;;;4910611;29;20043;-92
2022/04/13 02:47:32;;;;;;;15.75;13.48;;;11.80;99.90;;;;;;4911128;29;20443;-92
2022/04/13 02:50:00;;;;;;;15.13;12.77;;;11.80;99.90;;;;;;4911252;29;20047;-91
2022/04/13 02:52:28;;;;;;;16.35;13.18;;;11.80;99.90;;;;;;4906036;29;20052;-93
2022/04/13 02:54:57;;;;;;;15.77;14.10;;;11.80;99.90;;;;;;4878754;29;20052;-92
2022/04/13 02:57:22;;;;;;;15.40;12.77;;;11.80;99.90;;;;;;4910502;29;20036;-92
2022/04/13 02:59:49;;;;;;;17.80;14.30;;;11.70;99.90;;;;;;4897019;29;20127;-92
2022/04/13 03:02:18;;;;;;;17.80;14.65;;;11.70;99.90;;;;;;4910215;29;20155;-91
2022/04/13 03:04:46;;;;;;;17.33;14.73;;;11.70;99.90;;;;;;4910197;29;20770;-91
2022/04/13 03:07:13;;;;;;;15.68;13.68;;;11.70;99.90;;;;;;4911389;29;20489;-92
2022/04/13 03:09:39;;;;;;;17.30;14.38;;;11.60;99.90;;;;;;4910432;29;20052;-91
2022/04/13 03:12:06;;;;;;;16.52;14.18;;;11.60;99.90;;;;;;4905909;29;20052;-92
2022/04/13 03:14:33;;;;;;;16.50;14.40;;;11.50;99.90;;;;;;4909789;29;20497;-92
2022/04/13 03:16:58;;;;;;;16.90;14.65;;;11.50;99.90;;;;;;4910687;29;20379;-92
2022/04/13 03:19:24;;;;;;;16.17;14.38;;;11.50;99.90;;;;;;4894470;29;20095;-93
2022/04/13 03:21:51;;;;;;;19.25;15.00;;;11.60;99.90;;;;;;4900702;29;20111;-92
2022/04/13 03:24:18;;;;;;;16.48;14.70;;;11.60;99.90;;;;;;4912770;29;20059;-92
2022/04/13 03:26:43;;;;;;;16.40;14.60;;;11.60;99.90;;;;;;4910357;29;20398;-92
2022/04/13 03:29:09;;;;;;;17.17;15.00;;;11.70;99.90;;;;;;4911922;29;20052;-91
2022/04/13 03:31:35;;;;;;;15.55;13.60;;;11.70;99.90;;;;;;4910964;29;20510;-93
2022/04/13 03:34:00;;;;;;;17.35;14.30;;;11.70;99.90;;;;;;4894884;29;20043;-93
2022/04/13 03:36:26;;;;;;;17.98;13.68;;;11.70;99.90;;;;;;4911773;29;20084;-92
2022/04/13 03:38:52;;;;;;;18.15;14.65;;;11.70;99.90;;;;;;4925369;29;20056;-91
2022/04/13 03:41:18;;;;;;;16.30;14.23;;;11.70;99.90;;;;;;4932136;29;20052;-92
2022/04/13 03:43:43;;;;;;;15.40;13.80;;;11.70;99.90;;;;;;4916744;29;20126;-92
2022/04/13 03:46:09;;;;;;;17.25;14.48;;;11.70;99.90;;;;;;4916933;29;20076;-92
2022/04/13 03:48:34;;;;;;;16.73;14.43;;;11.70;99.90;;;;;;4928424;29;20048;-91
2022/04/13 03:51:00;;;;;;;16.20;14.50;;;11.70;99.90;;;;;;4900200;29;20060;-92
2022/04/13 03:53:26;;;;;;;17.02;14.68;;;11.70;99.90;;;;;;4909840;29;20111;-91
2022/04/13 03:55:52;;;;;;;17.73;14.05;;;11.70;99.90;;;;;;4881012;29;20052;-92
2022/04/13 03:58:17;;;;;;;17.77;15.00;;;11.70;99.90;;;;;;4899758;29;20055;-91
2022/04/13 04:00:43;;;;;;;17.98;14.88;;;11.70;99.90;;;;;;4909497;29;20056;-92
2022/04/13 04:03:09;;;;;;;19.15;14.68;;;11.70;99.90;;;;;;4881413;29;20509;-92
2022/04/13 04:05:34;;;;;;;16.27;14.23;;;11.70;99.90;;;;;;4894026;29;20801;-92
2022/04/13 04:08:00;;;;;;;18.05;14.95;;;11.70;99.90;;;;;;4892798;29;20055;-91
2022/04/13 04:10:25;;;;;;;18.63;14.57;;;11.70;99.90;;;;;;4896324;29;20051;-92
2022/04/13 04:12:51;;;;;;;17.30;14.30;;;11.70;99.90;;;;;;4891587;29;20056;-91
2022/04/13 04:15:17;;;;;;;17.58;14.55;;;11.70;99.90;;;;;;4896130;29;20094;-92
2022/04/13 04:17:42;;;;;;;18.38;15.98;;;11.70;99.90;;;;;;4910100;29;20040;-92
2022/04/13 04:20:09;;;;;;;18.48;15.40;;;11.70;99.90;;;;;;4912061;29;20052;-91
2022/04/13 04:22:35;;;;;;;16.08;14.02;;;11.60;99.90;;;;;;4909119;29;20066;-91
2022/04/13 04:25:05;;;;;;;16.17;14.48;;;11.60;99.90;;;;;;4910069;29;20036;-92
2022/04/13 04:27:30;;;;;;;17.13;14.90;;;11.60;99.90;;;;;;4910261;29;20071;-91
2022/04/13 04:29:56;;;;;;;16.40;13.48;;;11.50;99.90;;;;;;4911029;29;20469;-91
2022/04/13 04:32:22;;;;;;;18.38;15.57;;;11.40;99.90;;;;;;4891952;29;20036;-91
2022/04/13 04:34:47;;;;;;;18.42;14.93;;;11.40;99.90;;;;;;4893999;29;20051;-92
2022/04/13 04:37:13;;;;;;;17.13;14.65;;;11.40;99.90;;;;;;4914629;29;20067;-92
2022/04/13 04:39:38;;;;;;;18.92;15.57;;;11.30;99.90;;;;;;4896868;29;20040;-90
2022/04/13 04:42:05;;;;;;;18.45;16.50;;;11.30;99.90;;;;;;4906291;29;20052;-90
2022/04/13 04:44:30;;;;;;;18.80;16.42;;;11.20;99.90;;;;;;4932863;29;20032;-96
2022/04/13 04:46:56;;;;;;;18.52;15.60;;;11.20;99.90;;;;;;4921215;29;20135;-95
2022/04/13 04:49:22;;;;;;;20.15;16.13;;;11.20;99.90;;;;;;4890665;29;20104;-96
2022/04/13 04:51:47;;;;;;;18.85;16.63;;;11.20;99.90;;;;;;4903906;29;20044;-96
2022/04/13 04:54:13;;;;;;;18.92;16.88;;;11.20;99.90;;;;;;4921507;29;20044;-95
2022/04/13 04:56:38;;;;;;;19.73;16.58;;;11.10;99.90;;;;;;4927390;29;20063;-96
2022/04/13 04:59:04;;;;;;;21.15;18.48;;;11.20;99.90;;;;;;4916212;29;20048;-93
2022/04/13 05:01:30;;;;;;;22.75;17.50;;;11.20;99.90;;;;;;4915549;29;20044;-95
2022/04/13 05:03:56;;;;;;;19.35;16.95;;;11.10;99.90;;;;;;4915516;29;20179;-94
2022/04/13 05:06:25;;;;;;;21.45;17.65;;;11.20;99.90;;;;;;4898110;29;20040;-95
2022/04/13 05:08:51;;;;;;;21.02;16.35;;;11.20;99.90;;;;;;4914256;29;20087;-95
2022/04/13 05:11:18;;;;;;;21.83;18.70;;;11.20;99.90;;;;;;4883212;29;20111;-95
2022/04/13 05:13:47;;;;;;;21.42;16.88;;;11.30;99.90;;;;;;4897724;29;20151;-95
2022/04/13 05:16:14;;;;;;;22.30;17.88;;;11.30;99.90;;;;;;4911356;29;20135;-94
2022/04/13 05:18:40;;;;;;;20.65;17.92;;;11.30;99.90;;;;;;4921434;29;20055;-94
2022/04/13 05:21:06;;;;;;;19.83;17.23;;;11.30;99.90;;;;;;4900507;29;20052;-94
2022/04/13 05:23:32;;;;;;;22.50;17.35;;;11.40;99.90;;;;;;4883869;29;20395;-93
2022/04/13 05:25:57;;;;;;;22.92;17.83;;;11.50;99.90;;;;;;4898860;29;20052;-93
2022/04/13 05:28:23;;;;;;;24.55;17.33;;;11.50;99.90;;;;;;4920928;29;20465;-92
2022/04/13 05:30:49;;;;;;;22.30;17.77;;;11.50;99.90;;;;;;4914873;29;20119;-95
2022/04/13 05:33:14;;;;;;;20.00;17.48;;;11.60;99.90;;;;;;4917958;29;20044;-94
2022/04/13 05:35:40;;;;;;;19.83;17.30;;;11.60;99.90;;;;;;4901981;29;20055;-95
2022/04/13 05:38:06;;;;;;;20.00;17.73;;;11.60;99.90;;;;;;4915942;29;20060;-93
2022/04/13 05:40:32;;;;;;;22.23;18.58;;;11.70;99.90;;;;;;4916672;29;20048;-93
2022/04/13 05:42:58;;;;;;;21.95;17.88;;;11.70;99.90;;;;;;4913762;29;20096;-94
2022/04/13 05:45:24;;;;;;;23.20;19.45;;;11.70;99.90;;;;;;4897958;29;20482;-94
2022/04/13 05:47:50;;;;;;;22.52;18.35;;;11.70;99.90;;;;;;4916703;29;20184;-92
2022/04/13 05:50:16;;;;;;;20.98;17.80;;;11.80;99.90;;;;;;4891739;29;20545;-93
2022/04/13 05:52:43;;;;;;;21.08;17.83;;;11.80;99.90;;;;;;4907546;29;20068;-92
2022/04/13 05:55:09;;;;;;;23.23;18.85;;;11.70;99.90;;;;;;4917254;29;20119;-92
2022/04/13 05:57:35;;;;;;;25.90;20.05;;;11.70;99.90;;;;;;4900284;29;20070;-91
2022/04/13 06:00:01;;;;;;;23.27;19.23;;;11.70;99.90;;;;;;4898120;29;20052;-95
2022/04/13 06:02:26;;;;;;;22.05;19.13;;;11.70;99.90;;;;;;4914681;29;20048;-93
2022/04/13 06:04:52;;;;;;;21.35;19.08;;;11.70;99.90;;;;;;4900208;29;20218;-94
2022/04/13 06:07:18;;;;;;;23.02;20.58;;;11.70;99.90;;;;;;4913467;29;20478;-94
2022/04/13 06:09:44;;;;;;;25.58;20.38;;;11.80;99.90;;;;;;4898669;29;20071;-93
2022/04/13 06:12:10;;;;;;;22.02;19.70;;;11.80;99.90;;;;;;4895263;29;20178;-93
2022/04/13 06:14:36;;;;;;;21.58;18.85;;;11.90;99.90;;;;;;4896597;29;20120;-93
2022/04/13 06:17:02;;;;;;;24.98;20.98;;;12.00;99.90;;;;;;4904864;29;20074;-96
2022/04/13 06:19:27;;;;;;;25.63;20.42;;;12.00;99.90;;;;;;4913577;29;20116;-94
2022/04/13 06:21:53;;;;;;;24.33;20.33;;;12.10;99.90;;;;;;4900893;29;20437;-95
2022/04/13 06:24:18;;;;;;;23.27;19.75;;;12.30;99.90;;;;;;4916493;29;20071;-96
2022/04/13 06:26:44;;;;;;;23.85;21.30;;;12.40;99.90;;;;;;4931484;29;20044;-94
2022/04/13 06:29:09;;;;;;;25.45;21.27;;;12.50;99.90;;;;;;4931802;29;20111;-95
2022/04/13 06:31:35;;;;;;;24.30;21.17;;;12.70;99.90;;;;;;4935152;29;20037;-96
2022/04/13 06:34:01;;;;;;;26.35;20.90;;;12.80;99.90;;;;;;4905248;29;20016;-92
2022/04/13 06:36:26;;;;;;;26.40;20.73;;;13.00;99.90;;;;;;4904904;29;20044;-92
2022/04/13 06:38:52;;;;;;;26.95;21.60;;;13.20;99.90;;;;;;4897319;29;20108;-92
2022/04/13 06:41:17;;;;;;;23.67;21.15;;;13.30;99.90;;;;;;4909555;29;20048;-91
2022/04/13 06:43:43;;;;;;;25.40;21.13;;;13.50;99.90;;;;;;4895532;29;20056;-95
2022/04/13 06:46:09;;;;;;;22.77;20.38;;;13.50;99.90;;;;;;4898756;29;20561;-95
2022/04/13 06:48:35;;;;;;;24.45;20.27;;;13.60;99.90;;;;;;4899024;29;20678;-94
2022/04/13 06:51:02;;;;;;;23.20;19.42;;;13.70;99.90;;;;;;4913915;29;20036;-95
2022/04/13 06:53:28;;;;;;;21.17;17.55;;;13.70;99.90;;;;;;4906194;29;20040;-95
2022/04/13 06:55:54;;;;;;;21.80;18.00;;;13.80;99.90;;;;;;4912704;29;20161;-94
2022/04/13 06:58:20;;;;;;;22.27;18.33;;;13.90;99.90;;;;;;4915704;29;20498;-94
2022/04/13 07:00:46;;;;;;;20.00;17.90;;;13.90;99.90;;;;;;4916198;29;20458;-95
2022/04/13 07:03:11;;;;;;;20.25;16.73;;;14.00;99.90;;;;;;4901769;29;20063;-93
2022/04/13 07:05:37;;;;;;;21.83;16.40;;;14.00;99.90;;;;;;4897697;29;20048;-94
2022/04/13 07:08:03;;;;;;;22.77;16.45;;;14.10;99.90;;;;;;4912863;29;20099;-93
2022/04/13 07:10:30;;;;;;;21.42;16.65;;;14.10;99.90;;;;;;4913718;29;20502;-91
2022/04/13 07:12:56;;;;;;;20.67;16.45;;;14.20;99.90;;;;;;4922807;29;20071;-92
2022/04/13 07:15:22;;;;;;;20.27;16.13;;;14.20;99.90;;;;;;4897446;29;20103;-92
2022/04/13 07:17:48;;;;;;;19.58;15.43;;;14.30;99.90;;;;;;4906568;29;20086;-92
2022/04/13 07:20:14;;;;;;;21.55;15.85;;;14.30;99.90;;;;;;4924266;29;20047;-94
2022/04/13 07:22:50;;;;;;;19.58;15.95;;;14.40;99.90;;;;;;4915068;29;20048;-94
2022/04/13 07:25:19;;;;;;;18.65;15.30;;;14.40;99.90;;;;;;4896347;29;20056;-96
2022/04/13 07:27:47;;;;;;;17.67;14.65;;;14.60;99.90;;;;;;4886283;29;20063;-96
2022/04/13 07:30:15;;;;;;;18.27;13.75;;;14.70;99.90;;;;;;4917259;29;20082;-95
2022/04/13 07:32:52;;;;;;;17.10;13.57;;;14.90;99.90;;;;;;4921009;29;20044;-94
2022/04/13 07:35:18;;;;;;;20.50;14.77;;;15.00;99.90;;;;;;4904144;29;20048;-96
2022/04/13 07:37:43;;;;;;;17.52;14.77;;;15.00;99.90;;;;;;4928543;29;20084;-96
2022/04/13 07:40:14;;;;;;;18.17;13.90;;;15.00;99.90;;;;;;4925598;29;20118;-95
2022/04/13 07:42:40;;;;;;;20.35;15.65;;;15.10;99.90;;;;;;4924058;29;20044;-96
2022/04/13 07:45:07;;;;;;;19.33;14.77;;;15.10;99.90;;;;;;5000054;23;20111;-96
2022/04/13 07:47:32;;;;;;;19.15;14.13;;;15.10;99.90;;;;;;4938873;29;20050;-96
2022/04/13 07:49:58;;;;;;;18.38;14.88;;;15.10;99.90;;;;;;4930269;29;20476;-95
2022/04/13 07:52:25;;;;;;;20.27;15.63;;;15.10;99.90;;;;;;4937516;29;20042;-93
2022/04/13 07:54:51;;;;;;;17.80;15.55;;;15.10;99.90;;;;;;4934333;29;20126;-94
2022/04/13 07:57:16;;;;;;;21.85;15.38;;;15.20;99.90;;;;;;4901484;29;20814;-94
2022/04/13 07:59:45;;;;;;;20.70;16.02;;;15.20;99.90;;;;;;4944130;29;20413;-96
2022/04/13 08:02:10;;;;;;;22.60;16.88;;;15.20;99.90;;;;;;4912144;29;20058;-96
2022/04/13 08:04:37;;;;;;;18.55;15.88;;;15.20;99.90;;;;;;4920840;29;20493;-94
2022/04/13 08:07:03;;;;;;;21.02;16.52;;;15.30;99.90;;;;;;4929311;29;20466;-91
2022/04/13 08:09:28;;;;;;;20.08;16.40;;;15.30;99.90;;;;;;4916941;29;20099;-90
2022/04/13 08:11:54;;;;;;;20.80;16.10;;;15.40;99.90;;;;;;4931577;29;20047;-91
2022/04/13 08:14:23;;;;;;;21.55;16.25;;;15.50;99.90;;;;;;4931070;29;20154;-92
2022/04/13 08:16:49;;;;;;;20.90;14.80;;;15.50;99.90;;;;;;4929260;29;20124;-92
2022/04/13 08:19:15;;;;;;;20.00;15.88;;;15.60;99.90;;;;;;4929874;29;20051;-92
2022/04/13 08:21:41;;;;;;;19.33;15.75;;;15.60;99.90;;;;;;4928101;29;20497;-91
2022/04/13 08:24:07;;;;;;;20.88;15.98;;;15.50;99.90;;;;;;4910222;29;20052;-90
2022/04/13 08:26:33;;;;;;;20.00;16.08;;;15.60;99.90;;;;;;4925990;29;20039;-91
2022/04/13 08:29:02;;;;;;;18.83;14.68;;;15.50;99.90;;;;;;4917950;29;20130;-94
2022/04/13 08:31:28;;;;;;;18.85;13.88;;;15.60;99.90;;;;;;4935244;29;20501;-92
2022/04/13 08:33:53;;;;;;;20.25;14.15;;;15.60;99.90;;;;;;4931519;29;20039;-92
2022/04/13 08:36:19;;;;;;;17.63;12.80;;;15.60;99.90;;;;;;4934319;29;20131;-92
2022/04/13 08:38:45;;;;;;;15.43;11.77;;;15.70;99.90;;;;;;4951181;29;20489;-91
2022/04/13 08:41:16;;;;;;;15.80;10.95;;;15.80;99.90;;;;;;4934511;29;20036;-91
2022/04/13 08:44:03;;;;;;;16.65;11.57;;;15.80;99.90;;;;;;4937431;29;20103;-91
2022/04/13 08:46:30;;;;;;;16.42;10.88;;;15.90;99.90;;;;;;4919738;29;20055;-91
2022/04/13 08:48:57;;;;;;;14.35;10.15;;;15.90;99.90;;;;;;4922212;29;20036;-96
2022/04/13 08:51:24;;;;;;;16.02;11.52;;;15.90;99.90;;;;;;4917289;29;20032;-92
2022/04/13 08:54:11;;;;;;;17.35;11.57;;;16.00;99.90;;;;;;4934579;29;20506;-92
2022/04/13 08:56:38;;;;;;;14.73;10.82;;;16.00;99.90;;;;;;4929683;29;20123;-91
2022/04/13 08:59:06;;;;;;;15.27;10.75;;;16.10;99.90;;;;;;4934489;29;20058;-90
2022/04/13 09:02:01;;;;;;;16.15;11.50;;;16.10;99.90;;;;;;4917546;29;20043;-91
2022/04/13 09:04:29;;;;;;;15.13;11.68;;;16.20;99.90;;;;;;4879090;29;20124;-92
2022/04/13 09:07:02;;;;;;;16.13;11.32;;;16.30;99.90;;;;;;4893349;29;20097;-92
2022/04/13 09:09:39;;;;;;;16.52;11.23;;;16.40;99.90;;;;;;4881495;29;20056;-91
2022/04/13 09:12:08;;;;;;;18.10;11.15;;;16.50;99.90;;;;;;4894357;29;20049;-93
2022/04/13 09:14:37;;;;;;;14.88;9.82;;;16.50;99.90;;;;;;4914572;29;20097;-92
2022/04/13 09:17:04;;;;;;;12.98;9.40;;;16.60;99.90;;;;;;4894720;29;20091;-93
2022/04/13 09:19:30;;;;;;;13.88;9.80;;;16.60;99.90;;;;;;4904847;29;20104;-91
2022/04/13 09:21:58;;;;;;;12.50;8.63;;;16.60;99.90;;;;;;4917201;29;20048;-91
2022/04/13 09:24:25;;;;;;;12.85;7.50;;;16.60;99.90;;;;;;4904197;29;20123;-90
2022/04/13 09:26:51;;;;;;;11.73;7.10;;;16.60;99.90;;;;;;4881481;29;20051;-91
2022/04/13 09:29:17;;;;;;;12.02;8.13;;;16.80;99.90;;;;;;4878855;29;20056;-91
2022/04/13 09:31:43;;;;;;;13.18;7.72;;;16.80;99.90;;;;;;4895094;29;20063;-92
2022/04/13 09:34:09;;;;;;;12.10;7.30;;;16.90;99.90;;;;;;4906850;29;20060;-89
2022/04/13 09:36:35;;;;;;;11.38;6.32;;;16.90;99.90;;;;;;4900185;29;20116;-92
2022/04/13 09:39:01;;;;;;;12.93;7.35;;;17.00;99.90;;;;;;4892145;29;20048;-93
2022/04/13 09:41:38;;;;;;;12.20;8.20;;;17.00;99.90;;;;;;4912995;29;20426;-92
2022/04/13 09:44:14;;;;;;;10.38;7.28;;;17.20;99.90;;;;;;4916132;29;20072;-94
2022/04/13 09:46:41;;;;;;;13.07;7.82;;;17.30;99.90;;;;;;4908553;29;20511;-91
2022/04/13 09:49:18;;;;;;;11.63;7.40;;;17.30;99.90;;;;;;4927334;29;20401;-94
2022/04/13 09:51:50;;;;;;;11.25;6.93;;;17.50;99.90;;;;;;4936005;29;20036;-92
2022/04/13 09:54:16;;;;;;;9.20;5.93;;;17.60;99.90;;;;;;4915520;29;20080;-92
2022/04/13 09:56:48;;;;;;;9.18;6.30;;;17.60;99.90;;;;;;4916836;29;21358;-91
2022/04/13 09:59:31;;;;;;;11.45;6.13;;;17.70;99.90;;;;;;4931991;29;20051;-93
2022/04/13 10:01:57;;;;;;;11.45;7.05;;;17.80;99.90;;;;;;4914013;29;20375;-95
2022/04/13 10:04:30;;;;;;;11.00;6.80;;;17.70;99.90;;;;;;4935537;29;20039;-94
2022/04/13 10:07:16;;;;;;;11.65;6.50;;;17.70;99.90;;;;;;4917241;29;20055;-92
2022/04/13 10:09:42;;;;;;;12.52;8.00;;;17.80;99.90;;;;;;4933549;29;20043;-93
2022/04/13 10:12:09;;;;;;;11.10;6.20;;;17.90;99.90;;;;;;4929034;29;20039;-93
2022/04/13 10:14:34;;;;;;;9.95;6.32;;;18.00;99.90;;;;;;4917196;29;20066;-93
2022/04/13 10:17:08;;;;;;;9.93;5.13;;;18.00;99.90;;;;;;4916781;29;20397;-94
2022/04/13 10:19:35;;;;;;;10.10;5.32;;;18.00;99.90;;;;;;4932294;29;20047;-94
2022/04/13 10:22:01;;;;;;;10.68;5.30;;;18.00;99.90;;;;;;4927402;29;20119;-92
2022/04/13 10:24:29;;;;;;;8.55;4.22;;;17.90;99.90;;;;;;4911071;29;20043;-91
2022/04/13 10:27:20;;;;;;;9.75;4.45;;;17.90;99.90;;;;;;4944919;29;20047;-91
2022/04/13 10:29:49;;;;;;;8.80;4.78;;;17.80;99.90;;;;;;4918390;29;20087;-93
2022/04/13 10:32:15;;;;;;;11.00;6.00;;;17.80;99.90;;;;;;4904174;29;20075;-93
2022/04/13 10:34:46;;;;;;;11.45;6.60;;;17.90;99.90;;;;;;4935885;29;20043;-92
2022/04/13 10:37:14;;;;;;;10.55;4.95;;;17.90;99.90;;;;;;4931536;29;20035;-95
2022/04/13 10:39:41;;;;;;;9.48;4.30;;;18.00;99.90;;;;;;4917651;29;20127;-93
2022/04/13 10:42:08;;;;;;;8.88;4.68;;;18.20;99.90;;;;;;4933176;29;20082;-93
2022/04/13 10:44:36;;;;;;;9.43;3.92;;;18.30;99.90;;;;;;4915708;29;20055;-93
2022/04/13 10:47:07;;;;;;;9.15;5.15;;;18.40;99.90;;;;;;4933732;29;20079;-90
2022/04/13 10:49:58;;;;;;;7.50;4.55;;;18.50;99.90;;;;;;4911851;29;20047;-87
2022/04/13 10:52:36;;;;;;;;;;;18.60;99.90;;;;;;4910573;29;20066;-91
2022/04/13 10:55:05;;;;;;;6.57;2.85;;;18.60;99.90;;;;;;4936859;29;19933;-90
2022/04/13 10:57:36;;;;;;;8.00;4.20;;;18.80;99.90;;;;;;4918866;29;20071;-90
2022/04/13 11:00:03;;;;;;;;;;;18.80;99.90;;;;;;4934097;29;20046;-90
2022/04/13 11:02:52;;;;;;;8.30;4.53;;;18.70;99.90;;;;;;4933539;29;19927;-92
2022/04/13 11:05:18;;;;;;;6.45;3.08;;;18.60;99.90;;;;;;4933125;29;20063;-93
2022/04/13 11:07:44;;;;;;;8.07;4.25;;;18.70;99.90;;;;;;4933126;29;20055;-92
2022/04/13 11:10:16;;;;;;;9.40;4.63;;;18.70;99.90;;;;;;4933654;29;20203;-91
2022/04/13 11:12:42;;;;;;;9.77;4.50;;;18.80;99.90;;;;;;4934495;29;20051;-92
2022/04/13 11:15:08;;;;;;;7.95;4.30;;;18.90;99.90;;;;;;4934338;29;20044;-92
2022/04/13 11:17:40;;;;;;;9.15;3.97;;;18.90;99.90;;;;;;4933702;29;20048;-92
2022/04/13 11:20:22;;;;;;;9.05;4.75;;;18.90;99.90;;;;;;4933158;29;20048;-91
2022/04/13 11:23:08;;;;;;;9.43;5.70;;;18.80;99.90;;;;;;4933777;29;20095;-95
2022/04/13 11:25:58;;;;;;;9.40;5.97;;;18.70;99.90;;;;;;4941581;29;20078;-88
2022/04/13 11:28:28;;;;;;;9.13;5.68;;;18.70;99.90;;;;;;4893881;29;20048;-92
2022/04/13 11:31:11;;;;;;;11.82;7.63;;;18.70;99.90;;;;;;4915600;29;20095;-92
2022/04/13 11:33:51;;;;;;;12.05;7.72;;;18.80;99.90;;;;;;4915494;29;20115;-91
2022/04/13 11:36:18;;;;;;;12.63;7.53;;;18.90;99.90;;;;;;4915078;29;20054;-92
2022/04/13 11:38:52;;;;;;;9.70;4.75;;;19.10;99.90;;;;;;4933249;29;20082;-90
2022/04/13 11:41:18;;;;;;;8.75;4.10;;;19.10;99.90;;;;;;4930661;29;20043;-90
2022/04/13 11:43:45;;;;;;;7.18;3.20;;;19.20;99.90;;;;;;4919057;29;20062;-92
2022/04/13 11:46:36;;;;;;;9.43;3.50;;;19.00;99.70;;;;;;4946596;29;20058;-94
2022/04/13 11:49:03;;;;;;;8.65;3.90;;;19.00;99.00;;;;;;4932532;29;20055;-92
2022/04/13 11:51:30;;;;;;;7.43;3.30;;;18.80;98.70;;;;;;4899958;29;20126;-90
2022/04/13 11:54:10;;;;;;;9.75;4.82;;;18.70;98.70;;;;;;4935389;29;20050;-93
2022/04/13 11:56:49;;;;;;;9.38;4.88;;;18.70;99.90;;;;;;4917995;29;20116;-91
2022/04/13 11:59:46;;;;;;;9.73;4.85;;;18.80;99.90;;;;;;4934050;29;20051;-93
2022/04/13 12:02:14;;;;;;;8.80;3.97;;;18.80;99.90;;;;;;4938367;29;20386;-91
2022/04/13 12:04:39;;;;;;;9.13;3.58;;;19.00;99.90;;;;;;4939302;29;20046;-92
2022/04/13 12:07:08;;;;;;;8.52;3.35;;;19.20;99.90;;;;;;4959002;29;20052;-94
2022/04/13 12:09:34;;;;;;;9.90;3.20;;;19.30;99.60;;;;;;4951971;29;20052;-92
2022/04/13 12:12:02;;;;;;;8.23;2.95;;;19.20;98.00;;;;;;4912534;29;20058;-90
2022/04/13 12:14:33;;;;;;;6.50;2.92;;;19.30;98.70;;;;;;4979361;29;20058;-91
2022/04/13 12:17:02;;;;;;;9.40;3.85;;;19.20;98.00;;;;;;4958426;28;20044;-92
2022/04/13 12:19:42;;;;;;;9.25;3.13;;;19.10;98.30;;;;;;4942085;29;20076;-94
2022/04/13 12:22:18;;;;;;;5.65;2.40;;;19.10;98.20;;;;;;4937944;29;20044;-91
2022/04/13 12:25:02;;;;;;;9.10;2.83;;;19.10;95.50;;;;;;4936582;29;20170;-93
2022/04/13 12:27:27;;;;;;;8.57;3.10;;;19.00;95.40;;;;;;4935064;29;20062;-94
2022/04/13 12:30:16;;;;;;;9.15;3.72;;;18.90;96.10;;;;;;4936882;29;20047;-91
2022/04/13 12:32:48;;;;;;;9.52;3.33;;;18.80;96.30;;;;;;4936267;29;20453;-92
2022/04/13 12:35:15;;;;;;;11.35;4.40;;;18.70;97.30;;;;;;4935762;29;20039;-91
2022/04/13 12:37:55;;;;;;;11.02;4.95;;;18.60;98.50;;;;;;4938095;29;20039;-87